Latest Weather Observations for Woolshed

IDQ60801

Issued at 9:32 am EST Friday 29 April 2016 (issued every 30 minutes, with the page automatically refreshed every 10 minutes)

About weather observations | Map of weather stations | Latest weather observations for QLD | Other Formats
Station Details ID: 033307 Name: WOOLSHED Lat: -19.42 Lon: 146.54 Height: 556.04 m
Data from the previous 72 hours. | See also: Recent months at Woolshed
Date/Time
EST
Temp
°C
App
Temp
°C
Dew
Point
Rel
Hum
%
Delta-T
°C
Wind Press
QNH
hPa
Press
MSL
hPa
Rain
since 9 am
mm
Dir
 
Spd
km/h
Gust
km/h
Spd
kts
Gust
kts
29/09:30am 22.9 24.7 19.5 81 2.2 ESE 9 15 5 8 1020.6 1017.7 0.0
29/09:00am 21.6 23.6 19.2 86 1.6 SE 7 13 4 7 1020.5 1017.6 0.2
29/08:30am 20.9 22.7 18.8 88 1.3 ESE 7 17 4 9 1020.4 1017.5 0.2
29/08:00am 20.6 22.0 18.7 89 1.2 ESE 9 19 5 10 1020.1 1017.2 0.2
29/07:30am 20.2 22.0 18.7 91 1.0 ESE 7 13 4 7 1019.7 1016.8 0.2
29/07:00am 20.0 21.4 18.7 92 0.8 SE 9 15 5 8 1019.5 1016.6 0.2
29/06:30am 19.9 21.3 18.7 93 0.8 ESE 9 20 5 11 1019.2 1016.3 0.2
29/06:00am 19.9 21.8 18.9 94 0.6 SE 7 22 4 12 1019.1 1016.2 0.2
29/05:30am 19.7 21.5 18.7 94 0.6 SE 7 15 4 8 1018.6 1015.7 0.2
29/05:00am 19.7 21.5 18.7 94 0.6 SE 7 15 4 8 1018.5 1015.6 0.2
29/04:30am 19.8 21.3 18.8 94 0.6 ESE 9 22 5 12 1018.2 1015.2 0.2
29/04:00am 19.6 21.5 18.6 94 0.6 SE 6 15 3 8 1018.2 1015.2 0.2
29/03:30am 19.7 21.6 18.9 95 0.5 SE 7 15 4 8 1018.3 1015.4 0.2
29/03:00am 19.6 21.1 18.9 96 0.4 SE 9 17 5 9 1018.6 1015.7 0.2
29/02:30am 19.5 21.5 18.8 96 0.4 ESE 6 9 3 5 1018.8 1015.9 0.2
29/02:00am 19.8 22.2 18.8 94 0.6 E 4 6 2 3 1018.9 1016.0 0.0
29/01:30am 19.9 21.8 18.6 92 0.8 ESE 6 15 3 8 1019.2 1016.3 0.0
29/01:00am 20.1 22.4 18.6 91 1.0 ESE 4 15 2 8 1019.3 1016.4 0.0
29/12:30am 20.1 21.6 18.8 92 0.8 ESE 9 19 5 10 1019.3 1016.4 0.0
29/12:00am 20.1 21.9 18.8 92 0.8 ESE 7 15 4 8 1019.4 1016.5 0.0
 
Date/Time
EST
Temp
°C
App
Temp
°C
Dew
Point
Rel
Hum
%
Delta-T
°C
Wind Press
QNH
hPa
Press
MSL
hPa
Rain
since 9 am
mm
Dir
 
Spd
km/h
Gust
km/h
Spd
kts
Gust
kts
28/11:30pm 20.6 22.7 19.3 92 0.8 ESE 7 15 4 8 1019.7 1016.8 0.0
28/11:00pm 20.8 23.1 19.5 92 0.8 ESE 6 13 3 7 1019.8 1016.9 0.0
28/10:30pm 21.0 23.2 19.7 92 0.8 ESE 7 15 4 8 1020.1 1017.2 0.0
28/10:00pm 21.5 24.0 19.8 90 1.1 ESE 6 11 3 6 1020.3 1017.4 0.0
28/09:30pm 21.9 24.3 19.6 87 1.5 E 6 15 3 8 1020.2 1017.3 0.0
28/09:00pm 21.9 24.3 19.6 87 1.5 ENE 6 15 3 8 1020.2 1017.3 0.0
28/08:30pm 21.8 24.6 19.7 88 1.4 ENE 4 11 2 6 1019.9 1017.1 0.0
28/08:00pm 21.8 24.0 19.5 87 1.5 NE 7 13 4 7 1019.6 1016.7 0.0
28/07:30pm 22.0 24.6 19.2 84 1.8 NE 4 9 2 5 1019.2 1016.3 0.0
28/07:00pm 22.2 23.7 19.0 82 2.1 NNE 9 19 5 10 1018.7 1015.8 0.0
28/06:30pm 22.4 23.7 19.4 83 2.0 NE 11 20 6 11 1018.4 1015.5 0.0
28/06:00pm 22.6 24.4 19.6 83 2.0 NNE 9 20 5 11 1018.0 1015.1 0.0
28/05:30pm 23.2 24.7 18.9 77 2.8 NNE 9 20 5 11 1017.7 1014.8 0.0
28/05:00pm 23.3 24.6 18.4 74 3.1 NE 9 19 5 10 1017.5 1014.6 0.0
28/04:30pm 23.6 25.3 19.3 77 2.8 NE 9 20 5 11 1017.3 1014.4 0.0
28/04:00pm 24.1 25.4 19.2 74 3.2 NNE 11 28 6 15 1017.0 1014.1 0.0
28/03:30pm 26.2 27.0 18.1 61 5.2 NE 11 20 6 11 1016.9 1014.0 0.0
28/03:00pm 25.4 25.7 16.0 56 5.9 ENE 9 17 5 9 1017.1 1014.2 0.0
28/02:30pm 25.8 27.0 17.4 59 5.4 NE 7 11 4 6 1017.2 1014.3 0.0
28/02:00pm 26.3 27.9 17.9 60 5.4 E 6 15 3 8 1017.3 1014.4 0.0
28/01:30pm 26.3 27.5 17.4 58 5.7 ESE 7 15 4 8 1017.4 1014.5 0.0
28/01:00pm 26.2 28.2 17.8 60 5.4 E 4 15 2 8 1017.7 1014.8 0.0
28/12:30pm 25.1 26.5 17.8 64 4.7 ESE 7 15 4 8 1018.2 1015.2 0.0
28/12:00pm 24.2 26.0 18.2 69 3.9 E 6 9 3 5 1018.6 1015.7 0.0
28/11:30am 24.2 26.0 18.2 69 3.9 E 6 15 3 8 1018.8 1015.9 0.0
28/11:00am 23.4 24.3 17.6 70 3.7 E 9 17 5 9 1019.2 1016.3 0.0
28/10:30am 22.7 24.4 18.5 77 2.7 E 7 15 4 8 1019.4 1016.5 0.0
28/10:00am 22.1 23.5 17.7 76 2.8 E 7 13 4 7 1019.4 1016.5 0.0
28/09:30am 22.0 24.0 18.8 82 2.1 E 6 13 3 7 1019.5 1016.6 0.0
28/09:00am 21.8 23.0 18.2 80 2.3 ESE 9 17 5 9 1019.1 1016.2 0.2
28/08:30am 20.7 21.4 17.9 84 1.8 ESE 11 24 6 13 1018.8 1015.9 0.2
28/08:00am 20.2 21.9 18.1 88 1.3 ESE 6 17 3 9 1018.5 1015.6 0.2
28/07:30am 19.6 21.1 18.1 91 0.9 ESE 7 15 4 8 1018.3 1015.4 0.2
28/07:00am 19.2 20.7 18.0 93 0.8 SE 7 17 4 9 1018.2 1015.2 0.2
28/06:30am 19.0 20.6 17.8 93 0.8 ESE 6 9 3 5 1017.7 1014.8 0.2
28/06:00am 19.0 20.5 17.7 92 0.8 ESE 6 13 3 7 1017.4 1014.5 0.2
28/05:30am 19.1 20.5 17.8 92 0.8 SE 7 17 4 9 1017.3 1014.4 0.2
28/05:00am 19.0 20.0 17.7 92 0.8 SE 9 24 5 13 1016.9 1014.0 0.2
28/04:30am 19.0 20.0 17.8 93 0.8 SE 9 17 5 9 1016.9 1014.0 0.2
28/04:00am 18.7 20.1 17.4 92 0.8 ESE 6 9 3 5 1017.0 1014.1 0.2
28/03:30am 18.8 20.2 17.3 91 0.9 SE 6 15 3 8 1017.1 1014.2 0.2
28/03:00am 19.0 20.5 17.7 92 0.8 ESE 6 15 3 8 1017.1 1014.2 0.2
28/02:30am 19.1 20.5 17.4 90 1.1 ESE 6 17 3 9 1017.2 1014.3 0.2
28/02:00am 19.1 20.3 17.4 90 1.1 SE 7 15 4 8 1017.4 1014.5 0.2
28/01:30am 18.8 21.1 17.6 93 0.8 S 2 6 1 3 1017.8 1014.9 0.2
28/01:00am 18.5 21.0 17.3 93 0.7 CALM 0 6 0 3 1018.0 1015.1 0.2
28/12:30am 19.2 20.7 17.7 91 0.9 SE 6 11 3 6 1018.4 1015.5 0.2
28/12:00am 19.5 21.1 17.8 90 1.1 ESE 6 17 3 9 1018.4 1015.5 0.2
 
Date/Time
EST
Temp
°C
App
Temp
°C
Dew
Point
Rel
Hum
%
Delta-T
°C
Wind Press
QNH
hPa
Press
MSL
hPa
Rain
since 9 am
mm
Dir
 
Spd
km/h
Gust
km/h
Spd
kts
Gust
kts
27/11:30pm 19.7 20.7 17.8 89 1.2 SE 9 20 5 11 1018.6 1015.7 0.2
27/11:00pm 19.9 21.0 18.0 89 1.2 ESE 9 22 5 12 1018.7 1015.8 0.2
27/10:30pm 20.0 21.5 18.1 89 1.2 ESE 7 15 4 8 1018.8 1015.9 0.2
27/10:00pm 19.4 21.9 18.1 92 0.8 SE 2 7 1 4 1018.8 1015.9 0.2
27/09:30pm 19.4 22.2 17.9 91 0.9 CALM 0 0 0 0 1018.9 1016.0 0.2
27/09:00pm 20.0 22.9 18.3 90 1.1 CALM 0 4 0 2 1018.9 1016.0 0.2
27/08:30pm 20.7 23.7 18.5 87 1.4 CALM 0 0 0 0 1018.8 1015.9 0.2
27/08:00pm 21.2 24.0 18.8 86 1.5 ENE 2 4 1 2 1018.8 1015.9 0.2
27/07:30pm 21.3 24.0 18.7 85 1.7 E 2 7 1 4 1018.6 1015.7 0.2
27/07:00pm 21.3 24.0 18.7 85 1.7 E 2 4 1 2 1018.2 1015.2 0.2
27/06:30pm 21.4 23.7 18.6 84 1.8 E 4 7 2 4 1017.8 1014.9 0.2
27/06:00pm 21.3 24.1 18.9 86 1.5 ENE 2 7 1 4 1017.5 1014.6 0.2
27/05:30pm 21.6 23.7 19.0 85 1.7 ESE 6 9 3 5 1017.3 1014.4 0.2
27/05:00pm 22.1 25.5 19.3 84 1.8 CALM 0 6 0 3 1016.9 1014.0 0.2
27/04:30pm 21.7 24.7 19.3 86 1.6 ENE 2 6 1 3 1016.7 1013.8 0.2
27/04:00pm 23.1 24.8 18.6 76 2.9 ESE 7 13 4 7 1016.5 1013.5 0.0
27/03:30pm 23.6 25.2 17.8 70 3.7 E 6 11 3 6 1016.3 1013.3 0.0
27/03:00pm 23.8 25.9 18.2 71 3.6 E 4 9 2 5 1016.1 1013.2 0.0
27/02:30pm 24.4 26.1 18.6 70 3.8 ESE 7 13 4 7 1016.0 1013.1 0.0
27/02:00pm 22.0 23.8 18.2 79 2.4 E 6 17 3 9 1016.4 1013.4 0.0
27/01:30pm 23.7 25.1 17.7 69 3.8 ESE 7 13 4 7 1016.6 1013.6 0.0
27/01:00pm 23.4 24.7 17.6 70 3.7 ESE 7 17 4 9 1017.0 1014.1 0.0
27/12:30pm 23.9 25.3 17.9 69 3.8 ESE 7 15 4 8 1017.3 1014.4 0.0
27/12:00pm 23.5 24.8 17.5 69 3.8 E 7 15 4 8 1017.8 1014.9 0.0
27/11:30am 23.2 23.5 17.0 68 3.9 ESE 11 26 6 14 1018.4 1015.5 0.0
27/11:00am 22.9 23.5 16.7 68 3.9 SE 9 17 5 9 1018.8 1015.9 0.0
27/10:30am 23.3 23.8 17.5 70 3.7 E 11 19 6 10 1019.0 1016.1 0.0
27/10:00am 23.3 23.8 17.5 70 3.7 SE 11 24 6 13 1019.2 1016.3 0.0
27/09:30am 23.0 23.6 17.7 72 3.4 SE 11 26 6 14 1019.3 1016.4 0.0
27/09:00am 21.9 23.0 17.9 78 2.5 SE 9 15 5 8 1019.3 1016.4 0.0
27/08:30am 20.5 21.1 16.9 80 2.2 SSE 9 20 5 11 1019.0 1016.1 0.0
27/08:00am 20.3 21.6 17.1 82 2.0 SE 6 13 3 7 1018.8 1015.9 0.0
27/07:30am 19.7 20.6 16.5 82 2.0 SSE 7 15 4 8 1018.4 1015.5 0.0
27/07:00am 19.5 20.8 16.2 81 2.0 SE 4 13 2 7 1018.0 1015.1 0.0
27/06:30am 19.2 20.1 16.1 82 1.9 SSE 6 13 3 7 1017.5 1014.6 0.0
27/06:00am 19.3 20.1 15.8 80 2.1 SSE 6 9 3 5 1017.4 1014.5 0.0
27/05:30am 19.4 20.2 15.9 80 2.1 SSE 6 13 3 7 1017.5 1014.6 0.0
27/05:00am 19.3 20.1 15.8 80 2.1 SSE 6 9 3 5 1017.2 1014.3 0.0
27/04:30am 18.9 19.4 15.6 81 2.0 SSE 7 13 4 7 1017.2 1014.3 0.0
27/04:00am 18.7 19.3 15.4 81 2.0 SSE 6 11 3 6 1017.1 1014.2 0.0
27/03:30am 18.9 19.7 15.8 82 1.9 SSE 6 9 3 5 1017.1 1014.2 0.0
27/03:00am 19.1 19.9 15.8 81 2.0 SSE 6 13 3 7 1017.1 1014.2 0.0
27/02:30am 19.2 19.4 15.7 80 2.1 SE 9 26 5 14 1017.1 1014.2 0.0
27/02:00am 19.3 19.6 16.0 81 2.0 SE 9 24 5 13 1017.2 1014.3 0.0
27/01:30am 19.5 19.8 16.0 80 2.1 SE 9 24 5 13 1017.5 1014.6 0.0
27/01:00am 19.6 19.6 16.3 81 2.0 SE 11 20 6 11 1017.6 1014.7 0.0
27/12:30am 19.4 19.8 16.4 83 1.8 SE 9 20 5 11 1017.9 1015.0 0.0
27/12:00am 19.2 20.1 16.6 85 1.6 SE 7 15 4 8 1018.5 1015.6 0.0
 
Date/Time
EST
Temp
°C
App
Temp
°C
Dew
Point
Rel
Hum
%
Delta-T
°C
Wind Press
QNH
hPa
Press
MSL
hPa
Rain
since 9 am
mm
Dir
 
Spd
km/h
Gust
km/h
Spd
kts
Gust
kts
26/11:30pm 19.4 20.6 17.4 88 1.2 SE 7 15 4 8 1018.7 1015.8 0.0
26/11:00pm 18.3 20.4 17.3 94 0.6 ESE 2 7 1 4 1018.9 1016.0 0.0
26/10:30pm 18.4 21.0 17.4 94 0.6 CALM 0 0 0 0 1019.1 1016.2 0.0
26/10:00pm 18.6 21.2 17.6 94 0.6 CALM 0 0 0 0 1019.3 1016.4 0.0
26/09:30pm 18.8 21.1 17.6 93 0.8 NNE 2 6 1 3 1019.4 1016.5 0.0
26/09:00pm 19.0 21.3 17.7 92 0.8 NNE 2 4 1 2 1019.4 1016.5 0.0
26/08:30pm 19.1 21.1 17.8 92 0.8 NNE 4 7 2 4 1019.6 1016.7 0.0
26/08:00pm 19.3 21.0 18.0 92 0.8 N 6 9 3 5 1019.5 1016.6 0.0
26/07:30pm 19.6 21.7 18.1 91 0.9 N 4 7 2 4 1019.4 1016.5 0.0
26/07:00pm 19.6 21.6 17.9 90 1.1 N 4 7 2 4 1019.1 1016.2 0.0
26/06:30pm 19.9 21.8 17.7 87 1.4 NNE 4 7 2 4 1019.1 1016.2 0.0
26/06:00pm 20.4 22.3 17.6 84 1.8 N 4 6 2 3 1018.8 1015.9 0.0
26/05:30pm 21.5 23.0 17.7 79 2.4 N 6 9 3 5 1018.6 1015.7 0.0
26/05:00pm 22.1 23.4 17.5 75 2.9 N 7 11 4 6 1018.0 1015.1 0.0
26/04:30pm 24.2 25.6 17.4 65 4.3 NE 6 13 3 7 1017.6 1014.7 0.0
26/04:00pm 24.4 26.0 17.9 67 4.2 N 6 9 3 5 1017.3 1014.4 0.0
26/03:30pm 24.4 25.3 16.6 61 4.9 NNE 7 11 4 6 1017.2 1014.3 0.0
26/03:00pm 24.6 25.7 15.5 57 5.6 NE 4 9 2 5 1017.3 1014.4 0.0
26/02:30pm 24.9 25.4 15.0 54 6.1 SE 6 9 3 5 1017.5 1014.6 0.0
26/02:00pm 25.6 25.7 14.4 50 6.8 E 7 15 4 8 1017.7 1014.8 0.0
26/01:30pm 25.6 25.9 15.0 52 6.5 ESE 7 15 4 8 1018.3 1015.4 0.0
26/01:00pm 25.7 25.5 14.8 51 6.7 ESE 9 15 5 8 1018.5 1015.6 0.0
26/12:30pm 25.4 25.6 14.8 52 6.5 E 7 17 4 9 1018.9 1016.0 0.0
26/12:00pm 24.4 24.2 14.8 55 5.9 E 9 17 5 9 1019.2 1016.3 0.0
26/11:30am 24.0 24.4 15.2 58 5.4 ESE 7 19 4 10 1019.5 1016.6 0.0
26/11:00am 23.3 23.6 15.1 60 5.0 E 7 13 4 7 1019.9 1017.1 0.0
26/10:30am 22.8 22.7 14.9 61 4.8 ESE 9 17 5 9 1020.2 1017.3 0.0
26/10:00am 22.0 21.0 14.6 63 4.5 ESE 13 26 7 14 1020.5 1017.6 0.0

Other Formats:

Comma delimited format used in spreadsheet applications
http://www.bom.gov.au/fwo/IDQ60801/IDQ60801.95293.axf

JavaScript Object Notation format (JSON) in row-major order
http://www.bom.gov.au/fwo/IDQ60801/IDQ60801.95293.json